sensor_id;sensor_type;location;lat;lon;timestamp;pressure;altitude;pressure_sealevel;temperature;humidity
65760;BME280;52496;51.082;5.066;2023-11-22T00:01:27;102634.59;;;5.06;100.00
65760;BME280;52496;51.082;5.066;2023-11-22T00:03:57;102628.31;;;5.07;100.00
65760;BME280;52496;51.082;5.066;2023-11-22T00:06:28;102629.06;;;5.09;100.00
65760;BME280;52496;51.082;5.066;2023-11-22T00:09:00;102621.00;;;5.11;100.00
65760;BME280;52496;51.082;5.066;2023-11-22T00:11:30;102624.47;;;5.11;100.00
65760;BME280;52496;51.082;5.066;2023-11-22T00:14:01;102609.44;;;5.12;100.00
65760;BME280;52496;51.082;5.066;2023-11-22T00:16:32;102616.44;;;5.13;100.00
65760;BME280;52496;51.082;5.066;2023-11-22T00:19:04;102618.97;;;5.14;100.00
65760;BME280;52496;51.082;5.066;2023-11-22T00:21:36;102611.88;;;5.15;100.00
65760;BME280;52496;51.082;5.066;2023-11-22T00:24:07;102613.56;;;5.16;100.00
65760;BME280;52496;51.082;5.066;2023-11-22T00:26:38;102611.69;;;5.18;100.00
65760;BME280;52496;51.082;5.066;2023-11-22T00:29:09;102614.22;;;5.19;100.00
65760;BME280;52496;51.082;5.066;2023-11-22T00:31:40;102613.38;;;5.19;100.00
65760;BME280;52496;51.082;5.066;2023-11-22T00:34:10;102604.44;;;5.20;100.00
65760;BME280;52496;51.082;5.066;2023-11-22T00:36:41;102612.31;;;5.21;100.00
65760;BME280;52496;51.082;5.066;2023-11-22T00:39:11;102615.72;;;5.23;100.00
65760;BME280;52496;51.082;5.066;2023-11-22T00:41:43;102621.03;;;5.23;100.00
65760;BME280;52496;51.082;5.066;2023-11-22T00:44:14;102620.91;;;5.25;100.00
65760;BME280;52496;51.082;5.066;2023-11-22T00:46:45;102623.56;;;5.25;100.00
65760;BME280;52496;51.082;5.066;2023-11-22T00:49:16;102635.84;;;5.26;100.00
65760;BME280;52496;51.082;5.066;2023-11-22T00:51:46;102643.81;;;5.26;100.00
65760;BME280;52496;51.082;5.066;2023-11-22T00:54:18;102651.56;;;5.29;100.00
65760;BME280;52496;51.082;5.066;2023-11-22T00:56:50;102654.22;;;5.29;100.00
65760;BME280;52496;51.082;5.066;2023-11-22T00:59:20;102648.69;;;5.32;100.00
65760;BME280;52496;51.082;5.066;2023-11-22T01:01:51;102659.22;;;5.34;100.00
65760;BME280;52496;51.082;5.066;2023-11-22T01:04:21;102658.38;;;5.33;100.00
65760;BME280;52496;51.082;5.066;2023-11-22T01:06:52;102655.59;;;5.35;100.00
65760;BME280;52496;51.082;5.066;2023-11-22T01:09:23;102660.69;;;5.38;100.00
65760;BME280;52496;51.082;5.066;2023-11-22T01:11:53;102656.22;;;5.38;100.00
65760;BME280;52496;51.082;5.066;2023-11-22T01:14:24;102660.81;;;5.36;100.00
65760;BME280;52496;51.082;5.066;2023-11-22T01:16:56;102649.44;;;5.34;100.00
65760;BME280;52496;51.082;5.066;2023-11-22T01:19:26;102660.06;;;5.34;100.00
65760;BME280;52496;51.082;5.066;2023-11-22T01:21:57;102670.66;;;5.34;100.00
65760;BME280;52496;51.082;5.066;2023-11-22T01:24:27;102675.13;;;5.34;100.00
65760;BME280;52496;51.082;5.066;2023-11-22T01:26:58;102679.59;;;5.33;100.00
65760;BME280;52496;51.082;5.066;2023-11-22T01:29:29;102683.09;;;5.34;100.00
65760;BME280;52496;51.082;5.066;2023-11-22T01:31:59;102676.94;;;5.33;100.00
65760;BME280;52496;51.082;5.066;2023-11-22T01:34:30;102690.09;;;5.35;100.00
65760;BME280;52496;51.082;5.066;2023-11-22T01:37:00;102705.06;;;5.36;100.00
65760;BME280;52496;51.082;5.066;2023-11-22T01:39:31;102704.00;;;5.38;100.00
65760;BME280;52496;51.082;5.066;2023-11-22T01:42:01;102714.41;;;5.41;100.00
65760;BME280;52496;51.082;5.066;2023-11-22T01:44:32;102716.13;;;5.42;100.00
65760;BME280;52496;51.082;5.066;2023-11-22T01:47:04;102724.78;;;5.44;100.00
65760;BME280;52496;51.082;5.066;2023-11-22T01:49:35;102724.59;;;5.47;100.00
65760;BME280;52496;51.082;5.066;2023-11-22T01:52:06;102734.28;;;5.48;100.00
65760;BME280;52496;51.082;5.066;2023-11-22T01:54:37;102735.97;;;5.49;100.00
65760;BME280;52496;51.082;5.066;2023-11-22T01:57:07;102731.50;;;5.50;100.00
65760;BME280;52496;51.082;5.066;2023-11-22T01:59:39;102742.03;;;5.51;100.00
65760;BME280;52496;51.082;5.066;2023-11-22T02:02:10;102746.47;;;5.51;100.00
65760;BME280;52496;51.082;5.066;2023-11-22T02:04:41;102738.59;;;5.49;100.00
65760;BME280;52496;51.082;5.066;2023-11-22T02:07:11;102728.19;;;5.46;100.00
65760;BME280;52496;51.082;5.066;2023-11-22T02:09:42;102730.31;;;5.41;100.00
65760;BME280;52496;51.082;5.066;2023-11-22T02:12:12;102730.72;;;5.35;100.00
65760;BME280;52496;51.082;5.066;2023-11-22T02:14:43;102731.34;;;5.26;100.00
65760;BME280;52496;51.082;5.066;2023-11-22T02:17:13;102723.09;;;5.18;100.00
65760;BME280;52496;51.082;5.066;2023-11-22T02:19:44;102727.00;;;5.12;100.00
65760;BME280;52496;51.082;5.066;2023-11-22T02:22:14;102723.03;;;5.05;100.00
65760;BME280;52496;51.082;5.066;2023-11-22T02:24:46;102722.59;;;4.98;100.00
65760;BME280;52496;51.082;5.066;2023-11-22T02:27:16;102737.22;;;4.91;100.00
65760;BME280;52496;51.082;5.066;2023-11-22T02:29:47;102721.91;;;4.82;100.00
65760;BME280;52496;51.082;5.066;2023-11-22T02:32:17;102727.63;;;4.76;100.00
65760;BME280;52496;51.082;5.066;2023-11-22T02:34:49;102727.25;;;4.68;100.00
65760;BME280;52496;51.082;5.066;2023-11-22T02:37:19;102728.63;;;4.60;100.00
65760;BME280;52496;51.082;5.066;2023-11-22T02:42:42;102737.63;;;4.44;100.00
65760;BME280;52496;51.082;5.066;2023-11-22T02:45:13;102733.69;;;4.36;100.00
65760;BME280;52496;51.082;5.066;2023-11-22T02:47:44;102732.47;;;4.28;100.00
65760;BME280;52496;51.082;5.066;2023-11-22T02:50:16;102733.03;;;4.19;100.00
65760;BME280;52496;51.082;5.066;2023-11-22T02:52:47;102743.25;;;4.10;100.00
65760;BME280;52496;51.082;5.066;2023-11-22T02:55:17;102750.72;;;4.04;100.00
65760;BME280;52496;51.082;5.066;2023-11-22T02:57:48;102738.91;;;3.95;100.00
65760;BME280;52496;51.082;5.066;2023-11-22T03:00:18;102736.66;;;3.89;100.00
65760;BME280;52496;51.082;5.066;2023-11-22T03:02:49;102742.50;;;3.80;100.00
65760;BME280;52496;51.082;5.066;2023-11-22T03:05:24;102742.88;;;3.74;100.00
65760;BME280;52496;51.082;5.066;2023-11-22T03:07:54;102736.25;;;3.66;100.00
65760;BME280;52496;51.082;5.066;2023-11-22T03:10:24;102735.59;;;3.63;100.00
65760;BME280;52496;51.082;5.066;2023-11-22T03:12:55;102726.25;;;3.57;100.00
65760;BME280;52496;51.082;5.066;2023-11-22T03:15:26;102733.41;;;3.55;100.00
65760;BME280;52496;51.082;5.066;2023-11-22T03:17:57;102731.91;;;3.51;100.00
65760;BME280;52496;51.082;5.066;2023-11-22T03:20:29;102736.41;;;3.49;100.00
65760;BME280;52496;51.082;5.066;2023-11-22T03:23:01;102740.97;;;3.47;100.00
65760;BME280;52496;51.082;5.066;2023-11-22T03:25:32;102733.88;;;3.48;100.00
65760;BME280;52496;51.082;5.066;2023-11-22T03:28:02;102737.19;;;3.51;100.00
65760;BME280;52496;51.082;5.066;2023-11-22T03:30:33;102736.81;;;3.57;100.00
65760;BME280;52496;51.082;5.066;2023-11-22T03:33:04;102736.25;;;3.66;100.00
65760;BME280;52496;51.082;5.066;2023-11-22T03:35:34;102738.25;;;3.77;100.00
65760;BME280;52496;51.082;5.066;2023-11-22T03:38:05;102737.78;;;3.85;100.00
65760;BME280;52496;51.082;5.066;2023-11-22T03:40:36;102750.66;;;3.91;100.00
65760;BME280;52496;51.082;5.066;2023-11-22T03:43:06;102750.38;;;3.96;100.00
65760;BME280;52496;51.082;5.066;2023-11-22T03:45:40;102753.75;;;3.98;100.00
65760;BME280;52496;51.082;5.066;2023-11-22T03:48:10;102766.91;;;3.99;100.00
65760;BME280;52496;51.082;5.066;2023-11-22T03:50:42;102767.78;;;4.00;100.00
65760;BME280;52496;51.082;5.066;2023-11-22T03:53:12;102774.69;;;4.02;100.00
65760;BME280;52496;51.082;5.066;2023-11-22T03:55:43;102772.75;;;4.04;100.00
65760;BME280;52496;51.082;5.066;2023-11-22T03:58:14;102784.13;;;4.06;100.00
65760;BME280;52496;51.082;5.066;2023-11-22T04:00:45;102783.94;;;4.09;100.00
65760;BME280;52496;51.082;5.066;2023-11-22T04:03:15;102791.69;;;4.12;100.00
65760;BME280;52496;51.082;5.066;2023-11-22T04:05:46;102795.09;;;4.14;100.00
65760;BME280;52496;51.082;5.066;2023-11-22T04:08:17;102799.25;;;4.19;100.00
65760;BME280;52496;51.082;5.066;2023-11-22T04:10:47;102802.66;;;4.21;100.00
65760;BME280;52496;51.082;5.066;2023-11-22T04:13:18;102810.44;;;4.24;100.00
65760;BME280;52496;51.082;5.066;2023-11-22T04:15:48;102803.22;;;4.26;100.00
65760;BME280;52496;51.082;5.066;2023-11-22T04:18:19;102807.66;;;4.25;100.00
65760;BME280;52496;51.082;5.066;2023-11-22T04:20:50;102803.13;;;4.27;100.00
65760;BME280;52496;51.082;5.066;2023-11-22T04:23:22;102813.81;;;4.26;100.00
65760;BME280;52496;51.082;5.066;2023-11-22T04:25:52;102812.13;;;4.25;100.00
65760;BME280;52496;51.082;5.066;2023-11-22T04:28:23;102818.19;;;4.27;100.00
65760;BME280;52496;51.082;5.066;2023-11-22T04:30:53;102824.41;;;4.26;100.00
65760;BME280;52496;51.082;5.066;2023-11-22T04:33:24;102821.75;;;4.26;100.00
65760;BME280;52496;51.082;5.066;2023-11-22T04:35:55;102833.13;;;4.28;100.00
65760;BME280;52496;51.082;5.066;2023-11-22T04:38:26;102841.06;;;4.28;100.00
65760;BME280;52496;51.082;5.066;2023-11-22T04:40:57;102854.13;;;4.31;100.00
65760;BME280;52496;51.082;5.066;2023-11-22T04:43:27;102854.97;;;4.31;100.00
65760;BME280;52496;51.082;5.066;2023-11-22T04:45:58;102863.88;;;4.30;100.00
65760;BME280;52496;51.082;5.066;2023-11-22T04:48:29;102870.19;;;4.28;100.00
65760;BME280;52496;51.082;5.066;2023-11-22T04:50:59;102855.16;;;4.28;100.00
65760;BME280;52496;51.082;5.066;2023-11-22T04:53:30;102864.91;;;4.28;100.00
65760;BME280;52496;51.082;5.066;2023-11-22T04:56:00;102872.06;;;4.26;100.00
65760;BME280;52496;51.082;5.066;2023-11-22T04:58:35;102867.91;;;4.22;100.00
65760;BME280;52496;51.082;5.066;2023-11-22T05:01:05;102860.81;;;4.22;100.00
65760;BME280;52496;51.082;5.066;2023-11-22T05:03:37;102858.09;;;4.24;100.00
65760;BME280;52496;51.082;5.066;2023-11-22T05:06:07;102853.34;;;4.29;100.00
65760;BME280;52496;51.082;5.066;2023-11-22T05:08:39;102860.38;;;4.30;100.00
65760;BME280;52496;51.082;5.066;2023-11-22T05:11:09;102861.09;;;4.32;100.00
65760;BME280;52496;51.082;5.066;2023-11-22T05:13:40;102865.56;;;4.31;100.00
65760;BME280;52496;51.082;5.066;2023-11-22T05:16:10;102875.13;;;4.34;100.00
65760;BME280;52496;51.082;5.066;2023-11-22T05:18:41;102864.53;;;4.34;100.00
65760;BME280;52496;51.082;5.066;2023-11-22T05:21:11;102865.19;;;4.37;100.00
65760;BME280;52496;51.082;5.066;2023-11-22T05:23:42;102866.03;;;4.38;100.00
65760;BME280;52496;51.082;5.066;2023-11-22T05:26:12;102860.53;;;4.41;100.00
65760;BME280;52496;51.082;5.066;2023-11-22T05:28:43;102867.56;;;4.42;100.00
65760;BME280;52496;51.082;5.066;2023-11-22T05:31:13;102878.34;;;4.39;100.00
65760;BME280;52496;51.082;5.066;2023-11-22T05:33:44;102860.53;;;4.41;100.00
65760;BME280;52496;51.082;5.066;2023-11-22T05:36:14;102859.69;;;4.41;100.00
65760;BME280;52496;51.082;5.066;2023-11-22T05:38:46;102863.97;;;4.43;100.00
65760;BME280;52496;51.082;5.066;2023-11-22T05:41:17;102865.66;;;4.44;100.00
65760;BME280;52496;51.082;5.066;2023-11-22T05:43:47;102868.22;;;4.46;100.00
65760;BME280;52496;51.082;5.066;2023-11-22T05:46:19;102874.19;;;4.49;100.00
65760;BME280;52496;51.082;5.066;2023-11-22T05:48:52;102861.78;;;4.50;100.00
65760;BME280;52496;51.082;5.066;2023-11-22T05:51:22;102865.09;;;4.53;100.00
65760;BME280;52496;51.082;5.066;2023-11-22T05:53:53;102866.63;;;4.57;100.00
65760;BME280;52496;51.082;5.066;2023-11-22T05:56:23;102863.00;;;4.58;100.00
65760;BME280;52496;51.082;5.066;2023-11-22T05:58:54;102864.72;;;4.59;100.00
65760;BME280;52496;51.082;5.066;2023-11-22T06:01:25;102876.06;;;4.62;100.00
65760;BME280;52496;51.082;5.066;2023-11-22T06:03:56;102882.13;;;4.64;100.00
65760;BME280;52496;51.082;5.066;2023-11-22T06:06:27;102876.84;;;4.64;100.00
65760;BME280;52496;51.082;5.066;2023-11-22T06:08:57;102872.28;;;4.66;100.00
65760;BME280;52496;51.082;5.066;2023-11-22T06:11:28;102882.03;;;4.65;100.00
65760;BME280;52496;51.082;5.066;2023-11-22T06:13:58;102894.44;;;4.65;100.00
65760;BME280;52496;51.082;5.066;2023-11-22T06:16:29;102890.84;;;4.66;100.00
65760;BME280;52496;51.082;5.066;2023-11-22T06:19:01;102910.31;;;4.65;100.00
65760;BME280;52496;51.082;5.066;2023-11-22T06:21:31;102914.13;;;4.60;100.00
65760;BME280;52496;51.082;5.066;2023-11-22T06:24:02;102908.81;;;4.60;100.00
65760;BME280;52496;51.082;5.066;2023-11-22T06:26:34;102906.06;;;4.62;100.00
65760;BME280;52496;51.082;5.066;2023-11-22T06:29:05;102906.00;;;4.64;100.00
65760;BME280;52496;51.082;5.066;2023-11-22T06:31:38;102900.56;;;4.65;100.00
65760;BME280;52496;51.082;5.066;2023-11-22T06:34:10;102897.84;;;4.67;100.00
65760;BME280;52496;51.082;5.066;2023-11-22T06:36:41;102899.47;;;4.69;100.00
65760;BME280;52496;51.082;5.066;2023-11-22T06:39:11;102902.28;;;4.66;100.00
65760;BME280;52496;51.082;5.066;2023-11-22T06:41:43;102912.97;;;4.65;100.00
65760;BME280;52496;51.082;5.066;2023-11-22T06:44:14;102906.00;;;4.64;100.00
65760;BME280;52496;51.082;5.066;2023-11-22T06:46:45;102899.91;;;4.62;100.00
65760;BME280;52496;51.082;5.066;2023-11-22T06:49:15;102917.53;;;4.63;100.00
65760;BME280;52496;51.082;5.066;2023-11-22T06:51:46;102931.72;;;4.62;100.00
65760;BME280;52496;51.082;5.066;2023-11-22T06:54:18;102940.44;;;4.64;100.00
65760;BME280;52496;51.082;5.066;2023-11-22T06:56:49;102934.94;;;4.67;100.00
65760;BME280;52496;51.082;5.066;2023-11-22T06:59:21;102936.66;;;4.68;100.00
65760;BME280;52496;51.082;5.066;2023-11-22T07:01:51;102936.47;;;4.71;100.00
65760;BME280;52496;51.082;5.066;2023-11-22T07:04:22;102930.97;;;4.74;100.00
65760;BME280;52496;51.082;5.066;2023-11-22T07:06:53;102911.47;;;4.75;100.00
65760;BME280;52496;51.082;5.066;2023-11-22T07:09:23;102902.75;;;4.73;100.00
65760;BME280;52496;51.082;5.066;2023-11-22T07:11:54;102897.47;;;4.73;100.00
65760;BME280;52496;51.082;5.066;2023-11-22T07:14:25;102898.41;;;4.72;100.00
65760;BME280;52496;51.082;5.066;2023-11-22T07:16:55;102902.00;;;4.71;100.00
65760;BME280;52496;51.082;5.066;2023-11-22T07:19:27;102899.34;;;4.71;100.00
65760;BME280;52496;51.082;5.066;2023-11-22T07:21:58;102899.16;;;4.74;100.00
65760;BME280;52496;51.082;5.066;2023-11-22T07:24:28;102891.19;;;4.74;100.00
65760;BME280;52496;51.082;5.066;2023-11-22T07:27:01;102891.97;;;4.76;100.00
65760;BME280;52496;51.082;5.066;2023-11-22T07:29:33;102895.38;;;4.78;100.00
65760;BME280;52496;51.082;5.066;2023-11-22T07:32:03;102897.84;;;4.81;100.00
65760;BME280;52496;51.082;5.066;2023-11-22T07:34:35;102897.06;;;4.79;100.00
65760;BME280;52496;51.082;5.066;2023-11-22T07:37:06;102901.72;;;4.75;100.00
65760;BME280;52496;51.082;5.066;2023-11-22T07:39:37;102905.09;;;4.77;100.00
65760;BME280;52496;51.082;5.066;2023-11-22T07:42:08;102918.38;;;4.77;100.00
65760;BME280;52496;51.082;5.066;2023-11-22T07:44:39;102925.28;;;4.80;100.00
65760;BME280;52496;51.082;5.066;2023-11-22T07:47:09;102935.88;;;4.80;100.00
65760;BME280;52496;51.082;5.066;2023-11-22T07:49:41;102945.44;;;4.82;100.00
65760;BME280;52496;51.082;5.066;2023-11-22T07:52:12;102949.72;;;4.85;100.00
65760;BME280;52496;51.082;5.066;2023-11-22T07:54:44;102949.53;;;4.88;100.00
65760;BME280;52496;51.082;5.066;2023-11-22T07:57:14;102939.56;;;4.92;100.00
65760;BME280;52496;51.082;5.066;2023-11-22T07:59:45;102940.22;;;4.95;100.00
65760;BME280;52496;51.082;5.066;2023-11-22T08:02:17;102936.66;;;4.96;100.00
65760;BME280;52496;51.082;5.066;2023-11-22T08:04:48;102927.72;;;4.97;100.00
65760;BME280;52496;51.082;5.066;2023-11-22T08:07:20;102938.34;;;4.97;100.00
65760;BME280;52496;51.082;5.066;2023-11-22T08:09:53;102940.22;;;4.95;100.00
65760;BME280;52496;51.082;5.066;2023-11-22T08:12:24;102948.28;;;4.94;100.00
65760;BME280;52496;51.082;5.066;2023-11-22T08:14:54;102958.78;;;4.95;100.00
65760;BME280;52496;51.082;5.066;2023-11-22T08:17:26;102964.09;;;4.95;100.00
65760;BME280;52496;51.082;5.066;2023-11-22T08:19:58;102974.81;;;4.94;100.00
65760;BME280;52496;51.082;5.066;2023-11-22T08:22:30;102992.16;;;4.99;100.00
65760;BME280;52496;51.082;5.066;2023-11-22T08:25:04;102999.91;;;5.02;100.00
65760;BME280;52496;51.082;5.066;2023-11-22T08:27:35;102993.72;;;5.02;100.00
65760;BME280;52496;51.082;5.066;2023-11-22T08:30:09;103008.59;;;5.04;100.00
65760;BME280;52496;51.082;5.066;2023-11-22T08:32:47;103017.22;;;5.08;100.00
65760;BME280;52496;51.082;5.066;2023-11-22T08:35:24;103023.22;;;5.12;100.00
65760;BME280;52496;51.082;5.066;2023-11-22T08:37:54;103029.06;;;5.17;100.00
65760;BME280;52496;51.082;5.066;2023-11-22T08:40:27;103023.56;;;5.20;100.00
65760;BME280;52496;51.082;5.066;2023-11-22T08:42:58;103008.34;;;5.23;100.00
65760;BME280;52496;51.082;5.066;2023-11-22T08:45:30;103004.41;;;5.29;100.00
65760;BME280;52496;51.082;5.066;2023-11-22T08:48:01;102999.69;;;5.34;100.00
65760;BME280;52496;51.082;5.066;2023-11-22T08:50:32;102992.28;;;5.39;100.00
65760;BME280;52496;51.082;5.066;2023-11-22T08:53:03;102987.63;;;5.43;100.00
65760;BME280;52496;51.082;5.066;2023-11-22T08:55:35;102997.84;;;5.49;100.00
65760;BME280;52496;51.082;5.066;2023-11-22T08:58:06;103002.56;;;5.58;100.00
65760;BME280;52496;51.082;5.066;2023-11-22T09:00:38;103004.91;;;5.63;100.00
65760;BME280;52496;51.082;5.066;2023-11-22T09:03:09;103013.25;;;5.71;100.00
65760;BME280;52496;51.082;5.066;2023-11-22T09:05:43;103013.59;;;5.79;100.00
65760;BME280;52496;51.082;5.066;2023-11-22T09:08:13;103014.91;;;5.86;100.00
65760;BME280;52496;51.082;5.066;2023-11-22T09:10:45;103017.94;;;5.94;100.00
65760;BME280;52496;51.082;5.066;2023-11-22T09:13:16;103025.31;;;6.04;100.00
65760;BME280;52496;51.082;5.066;2023-11-22T09:15:46;103025.88;;;6.09;100.00
65760;BME280;52496;51.082;5.066;2023-11-22T09:18:17;103017.91;;;6.09;100.00
65760;BME280;52496;51.082;5.066;2023-11-22T09:20:48;103023.22;;;6.09;100.00
65760;BME280;52496;51.082;5.066;2023-11-22T09:23:18;103019.78;;;6.07;100.00
65760;BME280;52496;51.082;5.066;2023-11-22T09:25:50;103030.97;;;6.12;100.00
65760;BME280;52496;51.082;5.066;2023-11-22T09:28:21;103037.88;;;6.14;100.00
65760;BME280;52496;51.082;5.066;2023-11-22T09:30:51;103035.97;;;6.16;100.00
65760;BME280;52496;51.082;5.066;2023-11-22T09:33:23;103040.22;;;6.19;100.00
65760;BME280;52496;51.082;5.066;2023-11-22T09:35:53;103038.84;;;6.26;100.00
65760;BME280;52496;51.082;5.066;2023-11-22T09:38:24;103037.50;;;6.33;100.00
65760;BME280;52496;51.082;5.066;2023-11-22T09:40:55;103044.88;;;6.42;100.00
65760;BME280;52496;51.082;5.066;2023-11-22T09:43:26;103033.91;;;6.47;100.00
65760;BME280;52496;51.082;5.066;2023-11-22T09:45:59;103040.63;;;6.53;100.00
65760;BME280;52496;51.082;5.066;2023-11-22T09:48:31;103040.41;;;6.56;100.00
65760;BME280;52496;51.082;5.066;2023-11-22T09:51:04;103037.66;;;6.57;100.00
65760;BME280;52496;51.082;5.066;2023-11-22T09:53:46;103034.59;;;6.63;100.00
65760;BME280;52496;51.082;5.066;2023-11-22T09:56:20;103041.19;;;6.71;100.00
65760;BME280;52496;51.082;5.066;2023-11-22T09:58:52;103052.88;;;6.81;100.00
65760;BME280;52496;51.082;5.066;2023-11-22T10:01:28;103053.09;;;6.78;100.00
65760;BME280;52496;51.082;5.066;2023-11-22T10:04:01;103062.25;;;6.86;100.00
65760;BME280;52496;51.082;5.066;2023-11-22T10:06:32;103059.91;;;6.95;100.00
65760;BME280;52496;51.082;5.066;2023-11-22T10:09:04;103053.75;;;6.94;100.00
65760;BME280;52496;51.082;5.066;2023-11-22T10:11:38;103044.59;;;6.98;100.00
65760;BME280;52496;51.082;5.066;2023-11-22T10:14:10;103033.94;;;6.98;100.00
65760;BME280;52496;51.082;5.066;2023-11-22T10:16:40;103028.41;;;7.01;100.00
65760;BME280;52496;51.082;5.066;2023-11-22T10:19:11;103022.13;;;7.02;100.00
65760;BME280;52496;51.082;5.066;2023-11-22T10:21:44;103022.69;;;6.95;100.00
65760;BME280;52496;51.082;5.066;2023-11-22T10:24:21;103027.78;;;6.98;100.00
65760;BME280;52496;51.082;5.066;2023-11-22T10:26:51;103027.56;;;7.01;100.00
65760;BME280;52496;51.082;5.066;2023-11-22T10:29:25;103022.25;;;7.01;100.00
65760;BME280;52496;51.082;5.066;2023-11-22T10:31:55;103033.94;;;7.11;100.00
65760;BME280;52496;51.082;5.066;2023-11-22T10:34:27;103031.91;;;7.15;100.00
65760;BME280;52496;51.082;5.066;2023-11-22T10:37:01;103034.78;;;7.11;100.00
65760;BME280;52496;51.082;5.066;2023-11-22T10:39:34;103039.03;;;7.14;100.00
65760;BME280;52496;51.082;5.066;2023-11-22T10:42:05;103038.59;;;7.20;100.00
65760;BME280;52496;51.082;5.066;2023-11-22T10:44:38;103038.78;;;7.30;100.00
65760;BME280;52496;51.082;5.066;2023-11-22T10:47:13;103031.25;;;7.37;100.00
65760;BME280;52496;51.082;5.066;2023-11-22T10:49:45;103037.00;;;7.30;100.00
65760;BME280;52496;51.082;5.066;2023-11-22T10:52:16;103028.28;;;7.28;100.00
65760;BME280;52496;51.082;5.066;2023-11-22T10:54:49;103018.81;;;7.24;100.00
65760;BME280;52496;51.082;5.066;2023-11-22T10:57:22;103023.16;;;7.25;100.00
65760;BME280;52496;51.082;5.066;2023-11-22T10:59:59;103009.75;;;7.27;100.00
65760;BME280;52496;51.082;5.066;2023-11-22T11:02:33;102997.53;;;7.24;100.00
65760;BME280;52496;51.082;5.066;2023-11-22T11:05:14;102994.75;;;7.26;100.00
65760;BME280;52496;51.082;5.066;2023-11-22T11:07:50;102991.63;;;7.32;100.00
65760;BME280;52496;51.082;5.066;2023-11-22T11:10:24;102989.47;;;7.50;100.00
65760;BME280;52496;51.082;5.066;2023-11-22T11:12:55;102989.84;;;7.56;100.00
65760;BME280;52496;51.082;5.066;2023-11-22T11:15:26;102988.44;;;7.64;100.00
65760;BME280;52496;51.082;5.066;2023-11-22T11:17:58;102990.78;;;7.68;100.00
65760;BME280;52496;51.082;5.066;2023-11-22T11:20:51;102997.78;;;7.69;100.00
65760;BME280;52496;51.082;5.066;2023-11-22T11:23:26;103000.59;;;7.68;100.00
65760;BME280;52496;51.082;5.066;2023-11-22T11:26:08;103004.63;;;7.61;100.00
65760;BME280;52496;51.082;5.066;2023-11-22T11:28:44;103000.19;;;7.61;100.00
65760;BME280;52496;51.082;5.066;2023-11-22T11:31:24;102987.09;;;7.58;100.00
65760;BME280;52496;51.082;5.066;2023-11-22T11:34:01;102982.03;;;7.66;100.00
65760;BME280;52496;51.082;5.066;2023-11-22T11:36:32;102980.97;;;7.69;100.00
65760;BME280;52496;51.082;5.066;2023-11-22T11:39:06;102984.25;;;7.72;100.00
65760;BME280;52496;51.082;5.066;2023-11-22T11:41:40;102977.97;;;7.73;100.00
65760;BME280;52496;51.082;5.066;2023-11-22T11:44:11;102983.31;;;7.73;100.00
65760;BME280;52496;51.082;5.066;2023-11-22T11:46:43;102983.06;;;7.76;100.00
65760;BME280;52496;51.082;5.066;2023-11-22T11:49:14;102979.66;;;7.74;100.00
65760;BME280;52496;51.082;5.066;2023-11-22T11:51:45;102984.88;;;7.76;100.00
65760;BME280;52496;51.082;5.066;2023-11-22T11:54:16;102976.25;;;7.72;100.00
65760;BME280;52496;51.082;5.066;2023-11-22T11:56:46;102958.81;;;7.68;100.00
65760;BME280;52496;51.082;5.066;2023-11-22T11:59:20;102954.34;;;7.69;100.00
65760;BME280;52496;51.082;5.066;2023-11-22T12:01:53;102945.03;;;7.74;100.00
65760;BME280;52496;51.082;5.066;2023-11-22T12:04:25;102943.13;;;7.76;100.00
65760;BME280;52496;51.082;5.066;2023-11-22T12:06:56;102943.84;;;7.78;100.00
65760;BME280;52496;51.082;5.066;2023-11-22T12:09:27;102921.44;;;7.81;100.00
65760;BME280;52496;51.082;5.066;2023-11-22T12:12:00;102907.28;;;7.80;100.00
65760;BME280;52496;51.082;5.066;2023-11-22T12:14:32;102900.97;;;7.81;100.00
65760;BME280;52496;51.082;5.066;2023-11-22T12:17:03;102890.31;;;7.81;100.00
65760;BME280;52496;51.082;5.066;2023-11-22T12:19:35;102901.50;;;7.87;100.00
65760;BME280;52496;51.082;5.066;2023-11-22T12:22:05;102891.34;;;7.92;100.00
65760;BME280;52496;51.082;5.066;2023-11-22T12:24:38;102899.09;;;7.95;100.00
65760;BME280;52496;51.082;5.066;2023-11-22T12:27:09;102910.59;;;7.95;100.00
65760;BME280;52496;51.082;5.066;2023-11-22T12:29:40;102905.00;;;7.87;100.00
65760;BME280;52496;51.082;5.066;2023-11-22T12:32:12;102901.81;;;7.82;100.00
65760;BME280;52496;51.082;5.066;2023-11-22T12:34:43;102898.78;;;7.75;100.00
65760;BME280;52496;51.082;5.066;2023-11-22T12:37:14;102900.31;;;7.67;100.00
65760;BME280;52496;51.082;5.066;2023-11-22T12:39:46;102899.94;;;7.60;100.00
65760;BME280;52496;51.082;5.066;2023-11-22T12:42:18;102903.81;;;7.56;100.00
65760;BME280;52496;51.082;5.066;2023-11-22T12:44:50;102897.50;;;7.57;100.00
65760;BME280;52496;51.082;5.066;2023-11-22T12:47:34;102895.13;;;7.65;100.00
65760;BME280;52496;51.082;5.066;2023-11-22T12:50:06;102905.81;;;7.76;100.00
65760;BME280;52496;51.082;5.066;2023-11-22T12:52:37;102915.50;;;7.77;100.00
65760;BME280;52496;51.082;5.066;2023-11-22T12:55:08;102916.59;;;7.75;100.00
65760;BME280;52496;51.082;5.066;2023-11-22T12:57:38;102910.88;;;7.68;100.00
65760;BME280;52496;51.082;5.066;2023-11-22T13:00:11;102914.00;;;7.62;100.00
65760;BME280;52496;51.082;5.066;2023-11-22T13:02:41;102908.66;;;7.62;100.00
65760;BME280;52496;51.082;5.066;2023-11-22T13:05:13;102896.44;;;7.59;100.00
65760;BME280;52496;51.082;5.066;2023-11-22T13:07:45;102902.81;;;7.57;100.00
65760;BME280;52496;51.082;5.066;2023-11-22T13:10:17;102906.56;;;7.54;100.00
65760;BME280;52496;51.082;5.066;2023-11-22T13:12:47;102913.25;;;7.60;100.00
65760;BME280;52496;51.082;5.066;2023-11-22T13:15:18;102930.72;;;7.64;100.00